sensor_id;sensor_type;location;lat;lon;timestamp;P1;durP1;ratioP1;P2;durP2;ratioP2
29184;SDS011;16233;47.964;-3.842;2022-09-20T00:00:49;4.93;;;2.70;;
29184;SDS011;16233;47.964;-3.842;2022-09-20T00:02:50;3.03;;;2.75;;
29184;SDS011;16233;47.964;-3.842;2022-09-20T00:04:52;2.95;;;2.70;;
29184;SDS011;16233;47.964;-3.842;2022-09-20T00:06:53;3.05;;;2.80;;
29184;SDS011;16233;47.964;-3.842;2022-09-20T00:08:54;2.63;;;2.53;;
29184;SDS011;16233;47.964;-3.842;2022-09-20T00:10:58;5.03;;;3.15;;
29184;SDS011;16233;47.964;-3.842;2022-09-20T00:13:01;3.22;;;2.80;;
29184;SDS011;16233;47.964;-3.842;2022-09-20T00:15:03;3.63;;;3.40;;
29184;SDS011;16233;47.964;-3.842;2022-09-20T00:17:05;2.88;;;2.67;;
29184;SDS011;16233;47.964;-3.842;2022-09-20T00:19:06;2.90;;;2.70;;
29184;SDS011;16233;47.964;-3.842;2022-09-20T00:21:11;5.03;;;3.17;;
29184;SDS011;16233;47.964;-3.842;2022-09-20T00:23:15;5.45;;;3.05;;
29184;SDS011;16233;47.964;-3.842;2022-09-20T00:25:17;3.47;;;3.28;;
29184;SDS011;16233;47.964;-3.842;2022-09-20T00:27:19;4.28;;;3.55;;
29184;SDS011;16233;47.964;-3.842;2022-09-20T00:29:21;3.70;;;3.38;;
29184;SDS011;16233;47.964;-3.842;2022-09-20T00:31:22;4.15;;;3.83;;
29184;SDS011;16233;47.964;-3.842;2022-09-20T00:33:23;5.93;;;3.35;;
29184;SDS011;16233;47.964;-3.842;2022-09-20T00:35:25;3.25;;;3.05;;
29184;SDS011;16233;47.964;-3.842;2022-09-20T00:37:26;4.47;;;4.05;;
29184;SDS011;16233;47.964;-3.842;2022-09-20T00:39:27;3.58;;;3.30;;
29184;SDS011;16233;47.964;-3.842;2022-09-20T00:41:29;3.50;;;3.05;;
29184;SDS011;16233;47.964;-3.842;2022-09-20T00:43:35;2.92;;;2.72;;
29184;SDS011;16233;47.964;-3.842;2022-09-20T00:45:39;3.50;;;3.20;;
29184;SDS011;16233;47.964;-3.842;2022-09-20T00:47:42;4.30;;;3.50;;
29184;SDS011;16233;47.964;-3.842;2022-09-20T00:49:47;3.60;;;3.30;;
29184;SDS011;16233;47.964;-3.842;2022-09-20T00:51:52;3.55;;;3.25;;
29184;SDS011;16233;47.964;-3.842;2022-09-20T00:53:57;3.20;;;3.00;;
29184;SDS011;16233;47.964;-3.842;2022-09-20T00:56:03;3.50;;;3.20;;
29184;SDS011;16233;47.964;-3.842;2022-09-20T00:58:07;5.13;;;2.90;;
29184;SDS011;16233;47.964;-3.842;2022-09-20T01:00:09;7.75;;;2.63;;
29184;SDS011;16233;47.964;-3.842;2022-09-20T01:02:14;6.15;;;3.35;;
29184;SDS011;16233;47.964;-3.842;2022-09-20T01:04:19;3.80;;;3.50;;
29184;SDS011;16233;47.964;-3.842;2022-09-20T01:06:24;4.40;;;3.80;;
29184;SDS011;16233;47.964;-3.842;2022-09-20T01:08:25;3.60;;;3.30;;
29184;SDS011;16233;47.964;-3.842;2022-09-20T01:10:27;4.68;;;3.42;;
29184;SDS011;16233;47.964;-3.842;2022-09-20T01:12:29;3.63;;;3.42;;
29184;SDS011;16233;47.964;-3.842;2022-09-20T01:14:32;3.72;;;3.30;;
29184;SDS011;16233;47.964;-3.842;2022-09-20T01:16:34;3.72;;;3.42;;
29184;SDS011;16233;47.964;-3.842;2022-09-20T01:18:38;3.75;;;3.45;;
29184;SDS011;16233;47.964;-3.842;2022-09-20T01:20:41;4.25;;;3.45;;
29184;SDS011;16233;47.964;-3.842;2022-09-20T01:22:50;3.88;;;3.50;;
29184;SDS011;16233;47.964;-3.842;2022-09-20T01:25:03;3.78;;;3.47;;
29184;SDS011;16233;47.964;-3.842;2022-09-20T01:27:12;5.15;;;3.28;;
29184;SDS011;16233;47.964;-3.842;2022-09-20T01:29:32;4.50;;;3.85;;
29184;SDS011;16233;47.964;-3.842;2022-09-20T01:31:42;3.78;;;3.47;;
29184;SDS011;16233;47.964;-3.842;2022-09-20T01:33:49;4.00;;;2.67;;
29184;SDS011;16233;47.964;-3.842;2022-09-20T01:35:53;6.78;;;2.92;;
29184;SDS011;16233;47.964;-3.842;2022-09-20T01:37:59;4.15;;;3.85;;
29184;SDS011;16233;47.964;-3.842;2022-09-20T01:40:15;4.47;;;3.65;;
29184;SDS011;16233;47.964;-3.842;2022-09-20T01:42:24;6.18;;;3.78;;
29184;SDS011;16233;47.964;-3.842;2022-09-20T01:44:29;3.60;;;3.30;;
29184;SDS011;16233;47.964;-3.842;2022-09-20T01:46:36;3.38;;;3.08;;
29184;SDS011;16233;47.964;-3.842;2022-09-20T01:48:38;4.35;;;3.95;;
29184;SDS011;16233;47.964;-3.842;2022-09-20T01:50:45;4.18;;;3.45;;
29184;SDS011;16233;47.964;-3.842;2022-09-20T01:58:39;2.92;;;2.83;;
29184;SDS011;16233;47.964;-3.842;2022-09-20T02:04:00;3.40;;;3.03;;
29184;SDS011;16233;47.964;-3.842;2022-09-20T02:06:18;4.20;;;3.20;;
29184;SDS011;16233;47.964;-3.842;2022-09-20T02:08:32;5.13;;;2.47;;
29184;SDS011;16233;47.964;-3.842;2022-09-20T02:11:03;3.67;;;3.38;;
29184;SDS011;16233;47.964;-3.842;2022-09-20T02:13:11;3.75;;;3.35;;
29184;SDS011;16233;47.964;-3.842;2022-09-20T02:15:31;3.80;;;3.50;;
29184;SDS011;16233;47.964;-3.842;2022-09-20T02:17:42;5.43;;;3.28;;
29184;SDS011;16233;47.964;-3.842;2022-09-20T02:20:04;5.63;;;3.05;;
29184;SDS011;16233;47.964;-3.842;2022-09-20T02:22:34;3.60;;;3.30;;
29184;SDS011;16233;47.964;-3.842;2022-09-20T02:24:44;3.25;;;2.90;;
29184;SDS011;16233;47.964;-3.842;2022-09-20T02:26:56;3.63;;;2.83;;
29184;SDS011;16233;47.964;-3.842;2022-09-20T02:29:11;5.22;;;3.40;;
29184;SDS011;16233;47.964;-3.842;2022-09-20T02:31:32;6.00;;;3.92;;
29184;SDS011;16233;47.964;-3.842;2022-09-20T02:33:50;3.65;;;3.33;;
29184;SDS011;16233;47.964;-3.842;2022-09-20T02:36:05;3.40;;;3.20;;
29184;SDS011;16233;47.964;-3.842;2022-09-20T02:38:27;3.10;;;2.90;;
29184;SDS011;16233;47.964;-3.842;2022-09-20T02:40:43;3.88;;;3.33;;
29184;SDS011;16233;47.964;-3.842;2022-09-20T02:42:57;3.47;;;3.20;;
29184;SDS011;16233;47.964;-3.842;2022-09-20T02:45:03;3.25;;;2.92;;
29184;SDS011;16233;47.964;-3.842;2022-09-20T02:47:09;3.33;;;2.80;;
29184;SDS011;16233;47.964;-3.842;2022-09-20T02:51:27;3.10;;;2.60;;
29184;SDS011;16233;47.964;-3.842;2022-09-20T02:53:35;2.80;;;2.42;;
29184;SDS011;16233;47.964;-3.842;2022-09-20T02:55:53;2.95;;;2.75;;
29184;SDS011;16233;47.964;-3.842;2022-09-20T02:58:06;3.20;;;3.00;;
29184;SDS011;16233;47.964;-3.842;2022-09-20T03:00:17;3.00;;;2.80;;
29184;SDS011;16233;47.964;-3.842;2022-09-20T03:02:23;3.10;;;2.90;;
29184;SDS011;16233;47.964;-3.842;2022-09-20T03:04:33;6.13;;;3.13;;
29184;SDS011;16233;47.964;-3.842;2022-09-20T03:06:48;3.15;;;2.95;;
29184;SDS011;16233;47.964;-3.842;2022-09-20T03:08:57;3.63;;;2.70;;
29184;SDS011;16233;47.964;-3.842;2022-09-20T03:11:10;4.70;;;3.20;;
29184;SDS011;16233;47.964;-3.842;2022-09-20T03:13:17;3.65;;;3.05;;
29184;SDS011;16233;47.964;-3.842;2022-09-20T03:15:29;3.25;;;3.05;;
29184;SDS011;16233;47.964;-3.842;2022-09-20T03:17:42;3.28;;;2.70;;
29184;SDS011;16233;47.964;-3.842;2022-09-20T03:19:55;3.42;;;2.50;;
29184;SDS011;16233;47.964;-3.842;2022-09-20T03:22:10;3.55;;;2.78;;
29184;SDS011;16233;47.964;-3.842;2022-09-20T03:24:19;3.05;;;2.38;;
29184;SDS011;16233;47.964;-3.842;2022-09-20T03:26:34;2.30;;;2.08;;
29184;SDS011;16233;47.964;-3.842;2022-09-20T03:28:55;2.70;;;2.50;;
29184;SDS011;16233;47.964;-3.842;2022-09-20T03:31:03;2.30;;;2.08;;
29184;SDS011;16233;47.964;-3.842;2022-09-20T03:33:22;2.67;;;2.47;;
29184;SDS011;16233;47.964;-3.842;2022-09-20T03:35:41;2.35;;;2.25;;
29184;SDS011;16233;47.964;-3.842;2022-09-20T03:37:54;3.63;;;3.00;;
29184;SDS011;16233;47.964;-3.842;2022-09-20T03:40:33;3.28;;;3.03;;
29184;SDS011;16233;47.964;-3.842;2022-09-20T03:42:57;3.30;;;2.97;;
29184;SDS011;16233;47.964;-3.842;2022-09-20T03:45:11;4.90;;;3.88;;
29184;SDS011;16233;47.964;-3.842;2022-09-20T03:47:36;5.05;;;2.97;;
29184;SDS011;16233;47.964;-3.842;2022-09-20T03:49:57;9.55;;;4.40;;
29184;SDS011;16233;47.964;-3.842;2022-09-20T03:52:38;5.10;;;4.50;;
29184;SDS011;16233;47.964;-3.842;2022-09-20T03:57:51;5.78;;;5.10;;
29184;SDS011;16233;47.964;-3.842;2022-09-20T04:02:23;5.95;;;5.38;;
29184;SDS011;16233;47.964;-3.842;2022-09-20T04:04:44;5.97;;;5.53;;
29184;SDS011;16233;47.964;-3.842;2022-09-20T04:06:58;6.50;;;5.13;;
29184;SDS011;16233;47.964;-3.842;2022-09-20T04:09:23;8.90;;;6.05;;
29184;SDS011;16233;47.964;-3.842;2022-09-20T04:11:46;6.78;;;5.93;;
29184;SDS011;16233;47.964;-3.842;2022-09-20T04:13:57;9.65;;;6.72;;
29184;SDS011;16233;47.964;-3.842;2022-09-20T04:16:12;6.63;;;4.75;;
29184;SDS011;16233;47.964;-3.842;2022-09-20T04:18:23;5.20;;;4.70;;
29184;SDS011;16233;47.964;-3.842;2022-09-20T04:20:30;5.30;;;4.80;;
29184;SDS011;16233;47.964;-3.842;2022-09-20T04:22:36;8.80;;;5.78;;
29184;SDS011;16233;47.964;-3.842;2022-09-20T04:24:43;15.80;;;7.03;;
29184;SDS011;16233;47.964;-3.842;2022-09-20T04:26:50;8.90;;;6.28;;
29184;SDS011;16233;47.964;-3.842;2022-09-20T04:29:24;11.75;;;5.00;;
29184;SDS011;16233;47.964;-3.842;2022-09-20T04:31:32;4.25;;;3.90;;
29184;SDS011;16233;47.964;-3.842;2022-09-20T04:33:39;6.53;;;5.47;;
29184;SDS011;16233;47.964;-3.842;2022-09-20T04:35:45;5.35;;;4.85;;
29184;SDS011;16233;47.964;-3.842;2022-09-20T04:37:54;6.30;;;5.75;;
29184;SDS011;16233;47.964;-3.842;2022-09-20T04:39:58;127.95;;;9.77;;
29184;SDS011;16233;47.964;-3.842;2022-09-20T04:47:33;5.60;;;4.97;;
29184;SDS011;16233;47.964;-3.842;2022-09-20T04:58:12;6.57;;;3.75;;
29184;SDS011;16233;47.964;-3.842;2022-09-20T05:00:25;5.97;;;5.38;;
29184;SDS011;16233;47.964;-3.842;2022-09-20T05:05:37;6.47;;;3.97;;
29184;SDS011;16233;47.964;-3.842;2022-09-20T05:08:11;6.47;;;4.18;;
29184;SDS011;16233;47.964;-3.842;2022-09-20T05:10:37;4.43;;;3.75;;
29184;SDS011;16233;47.964;-3.842;2022-09-20T05:13:04;5.95;;;4.50;;
29184;SDS011;16233;47.964;-3.842;2022-09-20T05:20:50;4.95;;;4.13;;
29184;SDS011;16233;47.964;-3.842;2022-09-20T05:23:32;4.75;;;4.25;;
29184;SDS011;16233;47.964;-3.842;2022-09-20T05:31:26;5.95;;;4.25;;
29184;SDS011;16233;47.964;-3.842;2022-09-20T05:33:34;5.13;;;4.47;;
29184;SDS011;16233;47.964;-3.842;2022-09-20T05:35:42;4.47;;;3.72;;
29184;SDS011;16233;47.964;-3.842;2022-09-20T05:37:54;5.97;;;5.38;;
29184;SDS011;16233;47.964;-3.842;2022-09-20T05:40:05;6.57;;;4.50;;
29184;SDS011;16233;47.964;-3.842;2022-09-20T05:42:18;13.32;;;6.18;;
29184;SDS011;16233;47.964;-3.842;2022-09-20T05:44:26;6.90;;;4.88;;
29184;SDS011;16233;47.964;-3.842;2022-09-20T05:46:34;33.83;;;6.97;;
29184;SDS011;16233;47.964;-3.842;2022-09-20T05:48:50;9.25;;;6.32;;
29184;SDS011;16233;47.964;-3.842;2022-09-20T05:50:55;7.55;;;6.32;;
29184;SDS011;16233;47.964;-3.842;2022-09-20T05:53:02;8.82;;;5.80;;
29184;SDS011;16233;47.964;-3.842;2022-09-20T05:55:27;9.48;;;5.93;;
29184;SDS011;16233;47.964;-3.842;2022-09-20T05:57:50;6.82;;;5.97;;
29184;SDS011;16233;47.964;-3.842;2022-09-20T06:00:03;7.90;;;5.78;;
29184;SDS011;16233;47.964;-3.842;2022-09-20T06:02:22;9.95;;;6.00;;
29184;SDS011;16233;47.964;-3.842;2022-09-20T06:04:33;7.60;;;5.68;;
29184;SDS011;16233;47.964;-3.842;2022-09-20T06:08:52;7.65;;;5.47;;
29184;SDS011;16233;47.964;-3.842;2022-09-20T06:14:06;6.80;;;5.15;;
29184;SDS011;16233;47.964;-3.842;2022-09-20T06:16:16;7.72;;;6.90;;
29184;SDS011;16233;47.964;-3.842;2022-09-20T06:18:26;10.02;;;7.75;;
29184;SDS011;16233;47.964;-3.842;2022-09-20T06:20:32;9.90;;;7.88;;
29184;SDS011;16233;47.964;-3.842;2022-09-20T06:22:39;7.55;;;6.50;;
29184;SDS011;16233;47.964;-3.842;2022-09-20T06:24:45;10.38;;;8.30;;
29184;SDS011;16233;47.964;-3.842;2022-09-20T06:26:48;9.07;;;7.38;;
29184;SDS011;16233;47.964;-3.842;2022-09-20T06:28:53;10.85;;;7.78;;
29184;SDS011;16233;47.964;-3.842;2022-09-20T06:30:58;9.18;;;7.85;;
29184;SDS011;16233;47.964;-3.842;2022-09-20T06:33:00;9.60;;;8.63;;
29184;SDS011;16233;47.964;-3.842;2022-09-20T06:35:15;10.57;;;7.95;;
29184;SDS011;16233;47.964;-3.842;2022-09-20T06:37:23;9.05;;;7.05;;
29184;SDS011;16233;47.964;-3.842;2022-09-20T06:39:37;6.85;;;6.15;;
29184;SDS011;16233;47.964;-3.842;2022-09-20T06:41:43;10.07;;;7.60;;
29184;SDS011;16233;47.964;-3.842;2022-09-20T06:43:44;12.15;;;8.25;;
29184;SDS011;16233;47.964;-3.842;2022-09-20T06:45:45;8.90;;;7.53;;
29184;SDS011;16233;47.964;-3.842;2022-09-20T06:47:46;11.20;;;8.40;;
29184;SDS011;16233;47.964;-3.842;2022-09-20T06:49:47;8.85;;;7.75;;
29184;SDS011;16233;47.964;-3.842;2022-09-20T06:51:50;11.80;;;8.23;;
29184;SDS011;16233;47.964;-3.842;2022-09-20T06:53:51;8.68;;;7.80;;
29184;SDS011;16233;47.964;-3.842;2022-09-20T06:55:53;10.65;;;8.30;;
29184;SDS011;16233;47.964;-3.842;2022-09-20T06:57:55;7.43;;;6.80;;
29184;SDS011;16233;47.964;-3.842;2022-09-20T06:59:57;7.28;;;6.57;;
29184;SDS011;16233;47.964;-3.842;2022-09-20T07:01:58;8.75;;;7.43;;
29184;SDS011;16233;47.964;-3.842;2022-09-20T07:03:59;11.30;;;7.00;;
29184;SDS011;16233;47.964;-3.842;2022-09-20T07:06:00;11.95;;;7.70;;
29184;SDS011;16233;47.964;-3.842;2022-09-20T07:08:03;5.38;;;4.88;;
29184;SDS011;16233;47.964;-3.842;2022-09-20T07:10:04;5.50;;;4.90;;
29184;SDS011;16233;47.964;-3.842;2022-09-20T07:12:05;5.97;;;4.80;;
29184;SDS011;16233;47.964;-3.842;2022-09-20T07:14:07;6.95;;;6.22;;
29184;SDS011;16233;47.964;-3.842;2022-09-20T07:16:09;7.05;;;6.35;;
29184;SDS011;16233;47.964;-3.842;2022-09-20T07:18:11;7.10;;;6.38;;
29184;SDS011;16233;47.964;-3.842;2022-09-20T07:20:12;6.82;;;6.15;;
29184;SDS011;16233;47.964;-3.842;2022-09-20T07:22:14;6.80;;;5.32;;
29184;SDS011;16233;47.964;-3.842;2022-09-20T07:24:16;7.60;;;6.40;;
29184;SDS011;16233;47.964;-3.842;2022-09-20T07:26:18;7.35;;;5.55;;
29184;SDS011;16233;47.964;-3.842;2022-09-20T07:28:20;5.50;;;5.05;;
29184;SDS011;16233;47.964;-3.842;2022-09-20T07:30:21;5.88;;;4.55;;
29184;SDS011;16233;47.964;-3.842;2022-09-20T07:32:23;4.47;;;4.07;;
29184;SDS011;16233;47.964;-3.842;2022-09-20T07:34:24;5.68;;;4.68;;
29184;SDS011;16233;47.964;-3.842;2022-09-20T07:36:25;4.60;;;4.30;;
29184;SDS011;16233;47.964;-3.842;2022-09-20T07:38:26;4.18;;;3.97;;
29184;SDS011;16233;47.964;-3.842;2022-09-20T07:40:28;3.47;;;3.25;;
29184;SDS011;16233;47.964;-3.842;2022-09-20T07:42:29;6.68;;;3.50;;
29184;SDS011;16233;47.964;-3.842;2022-09-20T07:44:31;5.97;;;4.03;;
29184;SDS011;16233;47.964;-3.842;2022-09-20T07:46:32;2.63;;;2.45;;
29184;SDS011;16233;47.964;-3.842;2022-09-20T07:48:33;2.58;;;2.40;;
29184;SDS011;16233;47.964;-3.842;2022-09-20T07:50:35;4.43;;;2.55;;
29184;SDS011;16233;47.964;-3.842;2022-09-20T07:52:36;2.55;;;2.10;;
29184;SDS011;16233;47.964;-3.842;2022-09-20T07:54:37;2.40;;;2.20;;
29184;SDS011;16233;47.964;-3.842;2022-09-20T07:56:39;5.13;;;2.22;;
29184;SDS011;16233;47.964;-3.842;2022-09-20T07:58:41;2.17;;;1.98;;
29184;SDS011;16233;47.964;-3.842;2022-09-20T08:00:42;2.30;;;2.20;;
29184;SDS011;16233;47.964;-3.842;2022-09-20T08:02:43;1.95;;;1.85;;
29184;SDS011;16233;47.964;-3.842;2022-09-20T08:04:44;2.25;;;2.03;;
29184;SDS011;16233;47.964;-3.842;2022-09-20T08:06:45;2.15;;;1.60;;
29184;SDS011;16233;47.964;-3.842;2022-09-20T08:08:46;2.10;;;2.00;;
29184;SDS011;16233;47.964;-3.842;2022-09-20T08:10:48;1.60;;;1.60;;
29184;SDS011;16233;47.964;-3.842;2022-09-20T08:12:50;2.72;;;1.60;;
29184;SDS011;16233;47.964;-3.842;2022-09-20T08:14:51;3.85;;;1.77;;
29184;SDS011;16233;47.964;-3.842;2022-09-20T08:16:52;4.65;;;1.90;;
29184;SDS011;16233;47.964;-3.842;2022-09-20T08:18:54;1.60;;;1.50;;
29184;SDS011;16233;47.964;-3.842;2022-09-20T08:21:01;2.33;;;1.45;;
29184;SDS011;16233;47.964;-3.842;2022-09-20T08:23:03;1.83;;;1.70;;
29184;SDS011;16233;47.964;-3.842;2022-09-20T08:25:05;1.45;;;1.35;;
29184;SDS011;16233;47.964;-3.842;2022-09-20T08:27:06;2.35;;;1.60;;
29184;SDS011;16233;47.964;-3.842;2022-09-20T08:29:09;2.33;;;1.52;;
29184;SDS011;16233;47.964;-3.842;2022-09-20T08:31:12;4.07;;;1.35;;
29184;SDS011;16233;47.964;-3.842;2022-09-20T08:33:14;1.70;;;1.60;;
29184;SDS011;16233;47.964;-3.842;2022-09-20T08:35:15;1.35;;;1.25;;
29184;SDS011;16233;47.964;-3.842;2022-09-20T08:37:16;2.78;;;1.48;;
29184;SDS011;16233;47.964;-3.842;2022-09-20T08:39:18;1.35;;;1.30;;
29184;SDS011;16233;47.964;-3.842;2022-09-20T08:41:20;1.50;;;1.40;;
29184;SDS011;16233;47.964;-3.842;2022-09-20T08:43:26;1.23;;;1.10;;
29184;SDS011;16233;47.964;-3.842;2022-09-20T08:45:32;1.55;;;1.45;;
29184;SDS011;16233;47.964;-3.842;2022-09-20T08:47:34;2.05;;;1.20;;
29184;SDS011;16233;47.964;-3.842;2022-09-20T08:49:39;1.73;;;1.30;;
29184;SDS011;16233;47.964;-3.842;2022-09-20T08:51:41;1.20;;;1.10;;
29184;SDS011;16233;47.964;-3.842;2022-09-20T08:53:44;1.90;;;1.52;;
29184;SDS011;16233;47.964;-3.842;2022-09-20T08:55:48;1.30;;;1.30;;
29184;SDS011;16233;47.964;-3.842;2022-09-20T08:57:50;1.58;;;1.40;;
29184;SDS011;16233;47.964;-3.842;2022-09-20T08:59:53;2.22;;;1.20;;
29184;SDS011;16233;47.964;-3.842;2022-09-20T09:01:55;2.00;;;1.20;;
29184;SDS011;16233;47.964;-3.842;2022-09-20T09:03:57;1.55;;;1.30;;
29184;SDS011;16233;47.964;-3.842;2022-09-20T09:06:01;4.68;;;1.20;;
29184;SDS011;16233;47.964;-3.842;2022-09-20T09:08:05;1.20;;;1.10;;
29184;SDS011;16233;47.964;-3.842;2022-09-20T09:10:10;1.20;;;1.20;;
29184;SDS011;16233;47.964;-3.842;2022-09-20T09:12:15;1.58;;;1.48;;
29184;SDS011;16233;47.964;-3.842;2022-09-20T09:14:23;3.05;;;1.20;;
29184;SDS011;16233;47.964;-3.842;2022-09-20T09:16:26;1.75;;;1.40;;
29184;SDS011;16233;47.964;-3.842;2022-09-20T09:18:32;2.10;;;1.48;;
29184;SDS011;16233;47.964;-3.842;2022-09-20T09:20:39;1.10;;;1.10;;
29184;SDS011;16233;47.964;-3.842;2022-09-20T09:22:42;2.38;;;1.30;;
29184;SDS011;16233;47.964;-3.842;2022-09-20T09:24:43;2.67;;;1.23;;
29184;SDS011;16233;47.964;-3.842;2022-09-20T09:26:45;1.50;;;1.40;;
29184;SDS011;16233;47.964;-3.842;2022-09-20T09:28:46;1.42;;;1.42;;
29184;SDS011;16233;47.964;-3.842;2022-09-20T09:33:21;2.13;;;1.17;;
29184;SDS011;16233;47.964;-3.842;2022-09-20T09:35:27;1.73;;;1.27;;
29184;SDS011;16233;47.964;-3.842;2022-09-20T09:37:30;1.10;;;1.10;;
29184;SDS011;16233;47.964;-3.842;2022-09-20T09:39:31;3.22;;;1.30;;
29184;SDS011;16233;47.964;-3.842;2022-09-20T09:41:33;1.35;;;1.33;;
29184;SDS011;16233;47.964;-3.842;2022-09-20T09:43:35;1.33;;;1.30;;
29184;SDS011;16233;47.964;-3.842;2022-09-20T09:45:37;1.20;;;1.20;;
29184;SDS011;16233;47.964;-3.842;2022-09-20T09:47:38;5.70;;;1.90;;
29184;SDS011;16233;47.964;-3.842;2022-09-20T09:49:40;1.25;;;1.25;;
29184;SDS011;16233;47.964;-3.842;2022-09-20T09:52:01;2.17;;;2.08;;
29184;SDS011;16233;47.964;-3.842;2022-09-20T09:54:05;1.80;;;1.30;;
29184;SDS011;16233;47.964;-3.842;2022-09-20T09:56:17;1.63;;;1.20;;
29184;SDS011;16233;47.964;-3.842;2022-09-20T09:58:30;1.63;;;1.48;;
29184;SDS011;16233;47.964;-3.842;2022-09-20T10:00:42;1.30;;;1.30;;
29184;SDS011;16233;47.964;-3.842;2022-09-20T10:02:53;2.42;;;2.25;;
29184;SDS011;16233;47.964;-3.842;2022-09-20T10:05:10;1.15;;;1.15;;
29184;SDS011;16233;47.964;-3.842;2022-09-20T10:07:20;2.00;;;1.90;;
29184;SDS011;16233;47.964;-3.842;2022-09-20T10:09:29;3.95;;;1.30;;
29184;SDS011;16233;47.964;-3.842;2022-09-20T10:11:48;1.50;;;1.40;;
29184;SDS011;16233;47.964;-3.842;2022-09-20T10:14:04;1.40;;;1.30;;
29184;SDS011;16233;47.964;-3.842;2022-09-20T10:16:16;1.77;;;1.40;;
29184;SDS011;16233;47.964;-3.842;2022-09-20T10:18:26;1.30;;;1.30;;
29184;SDS011;16233;47.964;-3.842;2022-09-20T10:20:40;2.15;;;1.30;;
29184;SDS011;16233;47.964;-3.842;2022-09-20T10:22:57;2.10;;;1.90;;
29184;SDS011;16233;47.964;-3.842;2022-09-20T10:25:13;2.97;;;1.67;;
29184;SDS011;16233;47.964;-3.842;2022-09-20T10:27:26;2.35;;;1.80;;
29184;SDS011;16233;47.964;-3.842;2022-09-20T10:29:39;1.80;;;1.70;;
29184;SDS011;16233;47.964;-3.842;2022-09-20T10:31:51;4.05;;;1.58;;
29184;SDS011;16233;47.964;-3.842;2022-09-20T10:34:04;1.67;;;1.58;;
29184;SDS011;16233;47.964;-3.842;2022-09-20T10:38:26;1.88;;;1.27;;
29184;SDS011;16233;47.964;-3.842;2022-09-20T10:40:32;1.42;;;1.42;;
29184;SDS011;16233;47.964;-3.842;2022-09-20T10:42:37;1.42;;;1.20;;
29184;SDS011;16233;47.964;-3.842;2022-09-20T10:47:06;1.60;;;1.55;;
29184;SDS011;16233;47.964;-3.842;2022-09-20T10:49:16;1.77;;;1.67;;
29184;SDS011;16233;47.964;-3.842;2022-09-20T10:51:26;1.83;;;1.70;;
29184;SDS011;16233;47.964;-3.842;2022-09-20T10:53:38;1.73;;;1.63;;
29184;SDS011;16233;47.964;-3.842;2022-09-20T10:55:48;1.40;;;1.40;;
29184;SDS011;16233;47.964;-3.842;2022-09-20T11:00:42;1.80;;;1.70;;
29184;SDS011;16233;47.964;-3.842;2022-09-20T11:02:59;1.50;;;1.50;;
29184;SDS011;16233;47.964;-3.842;2022-09-20T11:05:25;2.08;;;1.48;;
29184;SDS011;16233;47.964;-3.842;2022-09-20T11:07:35;2.70;;;1.50;;
29184;SDS011;16233;47.964;-3.842;2022-09-20T11:09:49;5.60;;;1.63;;
29184;SDS011;16233;47.964;-3.842;2022-09-20T11:11:55;1.83;;;1.60;;
29184;SDS011;16233;47.964;-3.842;2022-09-20T11:14:10;1.27;;;1.27;;
29184;SDS011;16233;47.964;-3.842;2022-09-20T11:16:15;1.40;;;1.40;;
29184;SDS011;16233;47.964;-3.842;2022-09-20T11:18:20;1.30;;;1.30;;
29184;SDS011;16233;47.964;-3.842;2022-09-20T11:20:25;3.92;;;1.40;;
29184;SDS011;16233;47.964;-3.842;2022-09-20T11:22:30;1.58;;;1.48;;
29184;SDS011;16233;47.964;-3.842;2022-09-20T11:24:38;1.70;;;1.60;;
29184;SDS011;16233;47.964;-3.842;2022-09-20T11:26:46;1.88;;;1.77;;
29184;SDS011;16233;47.964;-3.842;2022-09-20T11:28:51;1.25;;;1.25;;
29184;SDS011;16233;47.964;-3.842;2022-09-20T11:30:57;1.58;;;1.48;;
29184;SDS011;16233;47.964;-3.842;2022-09-20T11:33:04;1.25;;;1.25;;
29184;SDS011;16233;47.964;-3.842;2022-09-20T11:35:16;1.20;;;1.20;;
29184;SDS011;16233;47.964;-3.842;2022-09-20T11:37:24;1.30;;;1.30;;
29184;SDS011;16233;47.964;-3.842;2022-09-20T11:55:40;1.17;;;1.10;;
29184;SDS011;16233;47.964;-3.842;2022-09-20T11:57:57;1.23;;;1.20;;
29184;SDS011;16233;47.964;-3.842;2022-09-20T12:00:00;1.00;;;1.00;;
29184;SDS011;16233;47.964;-3.842;2022-09-20T12:02:04;1.35;;;1.35;;
29184;SDS011;16233;47.964;-3.842;2022-09-20T12:04:18;1.48;;;1.38;;
29184;SDS011;16233;47.964;-3.842;2022-09-20T12:06:24;1.08;;;0.98;;
29184;SDS011;16233;47.964;-3.842;2022-09-20T12:08:28;1.58;;;1.58;;
29184;SDS011;16233;47.964;-3.842;2022-09-20T12:10:33;3.72;;;1.30;;
29184;SDS011;16233;47.964;-3.842;2022-09-20T12:12:39;1.40;;;1.40;;
29184;SDS011;16233;47.964;-3.842;2022-09-20T12:14:43;2.50;;;1.30;;
29184;SDS011;16233;47.964;-3.842;2022-09-20T12:16:53;1.20;;;1.20;;
29184;SDS011;16233;47.964;-3.842;2022-09-20T12:19:02;5.53;;;1.48;;
29184;SDS011;16233;47.964;-3.842;2022-09-20T12:21:05;2.25;;;2.15;;
29184;SDS011;16233;47.964;-3.842;2022-09-20T12:25:58;3.22;;;1.80;;
29184;SDS011;16233;47.964;-3.842;2022-09-20T12:28:02;1.60;;;1.50;;
29184;SDS011;16233;47.964;-3.842;2022-09-20T12:30:05;3.28;;;1.75;;
29184;SDS011;16233;47.964;-3.842;2022-09-20T12:34:40;2.05;;;2.00;;
29184;SDS011;16233;47.964;-3.842;2022-09-20T12:36:41;1.58;;;1.45;;
29184;SDS011;16233;47.964;-3.842;2022-09-20T12:38:47;1.50;;;1.50;;
29184;SDS011;16233;47.964;-3.842;2022-09-20T12:40:59;1.90;;;1.80;;
29184;SDS011;16233;47.964;-3.842;2022-09-20T12:43:16;1.77;;;1.77;;
29184;SDS011;16233;47.964;-3.842;2022-09-20T12:45:20;3.72;;;1.67;;
29184;SDS011;16233;47.964;-3.842;2022-09-20T12:47:22;2.00;;;1.90;;
29184;SDS011;16233;47.964;-3.842;2022-09-20T12:49:33;1.80;;;1.70;;
29184;SDS011;16233;47.964;-3.842;2022-09-20T12:51:36;1.70;;;1.70;;
29184;SDS011;16233;47.964;-3.842;2022-09-20T12:53:38;3.58;;;2.53;;
29184;SDS011;16233;47.964;-3.842;2022-09-20T12:55:44;3.20;;;1.45;;
29184;SDS011;16233;47.964;-3.842;2022-09-20T12:57:52;5.18;;;2.38;;
29184;SDS011;16233;47.964;-3.842;2022-09-20T12:59:56;2.05;;;1.80;;
29184;SDS011;16233;47.964;-3.842;2022-09-20T13:02:06;2.75;;;1.80;;
29184;SDS011;16233;47.964;-3.842;2022-09-20T13:04:51;1.75;;;1.67;;
29184;SDS011;16233;47.964;-3.842;2022-09-20T13:06:58;4.03;;;1.80;;
29184;SDS011;16233;47.964;-3.842;2022-09-20T13:09:28;3.33;;;1.80;;
29184;SDS011;16233;47.964;-3.842;2022-09-20T13:11:33;1.55;;;1.55;;
29184;SDS011;16233;47.964;-3.842;2022-09-20T13:13:38;2.60;;;1.70;;
29184;SDS011;16233;47.964;-3.842;2022-09-20T13:15:49;1.90;;;1.80;;
29184;SDS011;16233;47.964;-3.842;2022-09-20T13:17:52;8.38;;;3.25;;
29184;SDS011;16233;47.964;-3.842;2022-09-20T13:19:56;4.55;;;2.75;;
29184;SDS011;16233;47.964;-3.842;2022-09-20T13:22:00;2.05;;;1.95;;
29184;SDS011;16233;47.964;-3.842;2022-09-20T13:24:05;1.80;;;1.80;;
29184;SDS011;16233;47.964;-3.842;2022-09-20T13:26:07;2.13;;;2.03;;
29184;SDS011;16233;47.964;-3.842;2022-09-20T13:28:14;1.50;;;1.50;;
29184;SDS011;16233;47.964;-3.842;2022-09-20T13:30:26;1.75;;;1.75;;
29184;SDS011;16233;47.964;-3.842;2022-09-20T13:32:30;2.00;;;1.90;;
29184;SDS011;16233;47.964;-3.842;2022-09-20T13:34:31;1.63;;;1.63;;
29184;SDS011;16233;47.964;-3.842;2022-09-20T13:36:32;2.50;;;2.30;;
29184;SDS011;16233;47.964;-3.842;2022-09-20T13:38:33;2.05;;;1.95;;
29184;SDS011;16233;47.964;-3.842;2022-09-20T13:40:37;1.90;;;1.90;;
29184;SDS011;16233;47.964;-3.842;2022-09-20T13:42:40;2.25;;;2.25;;
29184;SDS011;16233;47.964;-3.842;2022-09-20T13:44:41;2.22;;;2.00;;
29184;SDS011;16233;47.964;-3.842;2022-09-20T13:46:43;1.70;;;1.70;;
29184;SDS011;16233;47.964;-3.842;2022-09-20T13:48:46;4.05;;;2.28;;
29184;SDS011;16233;47.964;-3.842;2022-09-20T13:50:51;1.80;;;1.80;;
29184;SDS011;16233;47.964;-3.842;2022-09-20T13:52:54;1.45;;;1.45;;
29184;SDS011;16233;47.964;-3.842;2022-09-20T13:54:57;1.52;;;1.52;;
29184;SDS011;16233;47.964;-3.842;2022-09-20T13:56:58;2.47;;;1.60;;
29184;SDS011;16233;47.964;-3.842;2022-09-20T13:59:03;3.65;;;1.70;;